sensor_id;sensor_type;location;lat;lon;timestamp;P1;durP1;ratioP1;P2;durP2;ratioP2
41861;SDS011;27537;57.134;-2.136;2024-03-08T00:00:06;14.88;;;4.78;;
41861;SDS011;27537;57.134;-2.136;2024-03-08T00:02:44;13.93;;;5.03;;
41861;SDS011;27537;57.134;-2.136;2024-03-08T00:05:12;15.63;;;5.00;;
41861;SDS011;27537;57.134;-2.136;2024-03-08T00:07:40;14.38;;;4.57;;
41861;SDS011;27537;57.134;-2.136;2024-03-08T00:10:08;15.20;;;4.88;;
41861;SDS011;27537;57.134;-2.136;2024-03-08T00:12:41;12.38;;;4.07;;
41861;SDS011;27537;57.134;-2.136;2024-03-08T00:15:11;12.23;;;4.43;;
41861;SDS011;27537;57.134;-2.136;2024-03-08T00:17:41;13.15;;;5.25;;
41861;SDS011;27537;57.134;-2.136;2024-03-08T00:20:09;13.15;;;4.95;;
41861;SDS011;27537;57.134;-2.136;2024-03-08T00:22:36;9.43;;;3.80;;
41861;SDS011;27537;57.134;-2.136;2024-03-08T00:25:05;11.63;;;4.35;;
41861;SDS011;27537;57.134;-2.136;2024-03-08T00:27:35;11.07;;;3.85;;
41861;SDS011;27537;57.134;-2.136;2024-03-08T00:30:03;12.93;;;4.70;;
41861;SDS011;27537;57.134;-2.136;2024-03-08T00:32:30;13.93;;;4.22;;
41861;SDS011;27537;57.134;-2.136;2024-03-08T00:34:58;12.57;;;5.25;;
41861;SDS011;27537;57.134;-2.136;2024-03-08T00:37:25;11.93;;;4.30;;
41861;SDS011;27537;57.134;-2.136;2024-03-08T00:39:52;10.40;;;4.35;;
41861;SDS011;27537;57.134;-2.136;2024-03-08T00:42:19;10.98;;;4.30;;
41861;SDS011;27537;57.134;-2.136;2024-03-08T00:44:46;9.90;;;4.22;;
41861;SDS011;27537;57.134;-2.136;2024-03-08T00:47:14;13.85;;;5.05;;
41861;SDS011;27537;57.134;-2.136;2024-03-08T00:49:41;13.30;;;5.03;;
41861;SDS011;27537;57.134;-2.136;2024-03-08T00:52:08;16.02;;;5.38;;
41861;SDS011;27537;57.134;-2.136;2024-03-08T00:54:35;12.95;;;6.10;;
41861;SDS011;27537;57.134;-2.136;2024-03-08T00:57:05;14.13;;;5.65;;
41861;SDS011;27537;57.134;-2.136;2024-03-08T00:59:33;13.82;;;5.57;;
41861;SDS011;27537;57.134;-2.136;2024-03-08T01:02:00;15.10;;;5.22;;
41861;SDS011;27537;57.134;-2.136;2024-03-08T01:04:28;14.65;;;6.18;;
41861;SDS011;27537;57.134;-2.136;2024-03-08T01:06:55;15.50;;;6.00;;
41861;SDS011;27537;57.134;-2.136;2024-03-08T01:09:23;14.88;;;5.55;;
41861;SDS011;27537;57.134;-2.136;2024-03-08T01:11:50;13.43;;;4.85;;
41861;SDS011;27537;57.134;-2.136;2024-03-08T01:14:19;11.68;;;4.78;;
41861;SDS011;27537;57.134;-2.136;2024-03-08T01:16:48;10.63;;;4.18;;
41861;SDS011;27537;57.134;-2.136;2024-03-08T01:19:15;12.57;;;4.60;;
41861;SDS011;27537;57.134;-2.136;2024-03-08T01:21:42;10.70;;;4.32;;
41861;SDS011;27537;57.134;-2.136;2024-03-08T01:24:09;10.48;;;4.60;;
41861;SDS011;27537;57.134;-2.136;2024-03-08T01:26:36;13.93;;;5.63;;
41861;SDS011;27537;57.134;-2.136;2024-03-08T01:29:03;12.93;;;4.65;;
41861;SDS011;27537;57.134;-2.136;2024-03-08T01:31:30;10.35;;;4.25;;
41861;SDS011;27537;57.134;-2.136;2024-03-08T01:33:57;11.48;;;4.18;;
41861;SDS011;27537;57.134;-2.136;2024-03-08T01:36:24;11.63;;;4.72;;
41861;SDS011;27537;57.134;-2.136;2024-03-08T01:38:52;18.17;;;6.07;;
41861;SDS011;27537;57.134;-2.136;2024-03-08T01:41:19;15.48;;;4.68;;
41861;SDS011;27537;57.134;-2.136;2024-03-08T01:43:46;15.27;;;5.65;;
41861;SDS011;27537;57.134;-2.136;2024-03-08T01:46:14;12.07;;;5.05;;
41861;SDS011;27537;57.134;-2.136;2024-03-08T01:48:45;16.13;;;5.80;;
41861;SDS011;27537;57.134;-2.136;2024-03-08T01:51:12;14.65;;;5.30;;
41861;SDS011;27537;57.134;-2.136;2024-03-08T01:53:42;16.27;;;6.68;;
41861;SDS011;27537;57.134;-2.136;2024-03-08T01:56:12;16.80;;;7.32;;
41861;SDS011;27537;57.134;-2.136;2024-03-08T01:58:40;22.13;;;7.30;;
41861;SDS011;27537;57.134;-2.136;2024-03-08T02:01:11;16.52;;;7.88;;
41861;SDS011;27537;57.134;-2.136;2024-03-08T02:03:41;19.15;;;7.35;;
41861;SDS011;27537;57.134;-2.136;2024-03-08T02:06:13;17.00;;;7.28;;
41861;SDS011;27537;57.134;-2.136;2024-03-08T02:11:10;18.23;;;9.02;;
41861;SDS011;27537;57.134;-2.136;2024-03-08T02:13:38;20.25;;;7.63;;
41861;SDS011;27537;57.134;-2.136;2024-03-08T02:16:04;15.75;;;7.68;;
41861;SDS011;27537;57.134;-2.136;2024-03-08T02:18:34;18.92;;;6.97;;
41861;SDS011;27537;57.134;-2.136;2024-03-08T02:21:02;23.35;;;7.78;;
41861;SDS011;27537;57.134;-2.136;2024-03-08T02:23:30;23.40;;;6.72;;
41861;SDS011;27537;57.134;-2.136;2024-03-08T02:25:58;20.52;;;7.65;;
41861;SDS011;27537;57.134;-2.136;2024-03-08T02:28:25;18.65;;;7.20;;
41861;SDS011;27537;57.134;-2.136;2024-03-08T02:30:52;16.50;;;6.18;;
41861;SDS011;27537;57.134;-2.136;2024-03-08T02:33:23;14.57;;;5.93;;
41861;SDS011;27537;57.134;-2.136;2024-03-08T02:35:51;17.08;;;6.20;;
41861;SDS011;27537;57.134;-2.136;2024-03-08T02:38:18;21.92;;;7.50;;
41861;SDS011;27537;57.134;-2.136;2024-03-08T02:40:48;15.40;;;7.05;;
41861;SDS011;27537;57.134;-2.136;2024-03-08T02:43:17;23.65;;;6.90;;
41861;SDS011;27537;57.134;-2.136;2024-03-08T02:45:44;20.13;;;8.27;;
41861;SDS011;27537;57.134;-2.136;2024-03-08T02:48:12;15.60;;;5.97;;
41861;SDS011;27537;57.134;-2.136;2024-03-08T02:50:39;13.65;;;6.10;;
41861;SDS011;27537;57.134;-2.136;2024-03-08T02:53:09;17.48;;;7.30;;
41861;SDS011;27537;57.134;-2.136;2024-03-08T02:55:39;18.48;;;6.75;;
41861;SDS011;27537;57.134;-2.136;2024-03-08T02:58:07;16.30;;;5.72;;
41861;SDS011;27537;57.134;-2.136;2024-03-08T03:00:37;16.08;;;5.63;;
41861;SDS011;27537;57.134;-2.136;2024-03-08T03:03:08;14.95;;;5.45;;
41861;SDS011;27537;57.134;-2.136;2024-03-08T03:05:35;14.32;;;6.35;;
41861;SDS011;27537;57.134;-2.136;2024-03-08T03:08:02;16.80;;;5.60;;
41861;SDS011;27537;57.134;-2.136;2024-03-08T03:10:36;15.05;;;5.32;;
41861;SDS011;27537;57.134;-2.136;2024-03-08T03:13:02;12.27;;;5.10;;
41861;SDS011;27537;57.134;-2.136;2024-03-08T03:15:31;14.65;;;5.15;;
41861;SDS011;27537;57.134;-2.136;2024-03-08T03:17:57;12.38;;;5.05;;
41861;SDS011;27537;57.134;-2.136;2024-03-08T03:20:24;14.50;;;5.10;;
41861;SDS011;27537;57.134;-2.136;2024-03-08T03:22:59;17.55;;;5.15;;
41861;SDS011;27537;57.134;-2.136;2024-03-08T03:25:28;15.23;;;4.93;;
41861;SDS011;27537;57.134;-2.136;2024-03-08T03:28:02;15.13;;;5.40;;
41861;SDS011;27537;57.134;-2.136;2024-03-08T03:30:31;17.63;;;5.93;;
41861;SDS011;27537;57.134;-2.136;2024-03-08T03:33:00;12.82;;;5.22;;
41861;SDS011;27537;57.134;-2.136;2024-03-08T03:35:28;17.50;;;4.90;;
41861;SDS011;27537;57.134;-2.136;2024-03-08T03:37:58;12.38;;;4.57;;
41861;SDS011;27537;57.134;-2.136;2024-03-08T03:40:29;10.60;;;4.70;;
41861;SDS011;27537;57.134;-2.136;2024-03-08T03:42:55;15.98;;;5.22;;
41861;SDS011;27537;57.134;-2.136;2024-03-08T03:45:23;12.73;;;4.53;;
41861;SDS011;27537;57.134;-2.136;2024-03-08T03:47:50;12.75;;;4.57;;
41861;SDS011;27537;57.134;-2.136;2024-03-08T03:50:18;19.08;;;5.82;;
41861;SDS011;27537;57.134;-2.136;2024-03-08T03:52:48;16.10;;;4.68;;
41861;SDS011;27537;57.134;-2.136;2024-03-08T03:55:15;15.32;;;5.47;;
41861;SDS011;27537;57.134;-2.136;2024-03-08T03:57:42;10.73;;;4.38;;
41861;SDS011;27537;57.134;-2.136;2024-03-08T04:00:10;15.70;;;5.55;;
41861;SDS011;27537;57.134;-2.136;2024-03-08T04:02:37;16.42;;;5.07;;
41861;SDS011;27537;57.134;-2.136;2024-03-08T04:05:05;16.42;;;4.38;;
41861;SDS011;27537;57.134;-2.136;2024-03-08T04:07:33;16.48;;;5.28;;
41861;SDS011;27537;57.134;-2.136;2024-03-08T04:10:01;15.35;;;4.22;;
41861;SDS011;27537;57.134;-2.136;2024-03-08T04:12:28;13.70;;;4.90;;
41861;SDS011;27537;57.134;-2.136;2024-03-08T04:14:56;19.35;;;5.78;;
41861;SDS011;27537;57.134;-2.136;2024-03-08T04:17:23;15.48;;;5.50;;
41861;SDS011;27537;57.134;-2.136;2024-03-08T04:19:52;15.40;;;5.15;;
41861;SDS011;27537;57.134;-2.136;2024-03-08T04:22:20;15.57;;;4.70;;
41861;SDS011;27537;57.134;-2.136;2024-03-08T04:24:47;17.38;;;5.13;;
41861;SDS011;27537;57.134;-2.136;2024-03-08T04:27:13;15.68;;;4.60;;
41861;SDS011;27537;57.134;-2.136;2024-03-08T04:29:40;12.93;;;4.55;;
41861;SDS011;27537;57.134;-2.136;2024-03-08T04:32:08;14.02;;;3.97;;
41861;SDS011;27537;57.134;-2.136;2024-03-08T04:34:35;12.60;;;3.70;;
41861;SDS011;27537;57.134;-2.136;2024-03-08T04:37:02;13.35;;;4.20;;
41861;SDS011;27537;57.134;-2.136;2024-03-08T04:39:31;18.40;;;4.57;;
41861;SDS011;27537;57.134;-2.136;2024-03-08T04:41:59;15.27;;;4.45;;
41861;SDS011;27537;57.134;-2.136;2024-03-08T04:44:32;10.68;;;3.92;;
41861;SDS011;27537;57.134;-2.136;2024-03-08T04:47:00;10.70;;;4.00;;
41861;SDS011;27537;57.134;-2.136;2024-03-08T04:49:27;14.43;;;4.50;;
41861;SDS011;27537;57.134;-2.136;2024-03-08T04:51:54;12.77;;;3.60;;
41861;SDS011;27537;57.134;-2.136;2024-03-08T04:54:21;14.80;;;4.78;;
41861;SDS011;27537;57.134;-2.136;2024-03-08T04:56:48;12.85;;;5.35;;
41861;SDS011;27537;57.134;-2.136;2024-03-08T04:59:14;16.33;;;4.47;;
41861;SDS011;27537;57.134;-2.136;2024-03-08T05:01:41;12.07;;;4.63;;
41861;SDS011;27537;57.134;-2.136;2024-03-08T05:04:08;14.70;;;4.50;;
41861;SDS011;27537;57.134;-2.136;2024-03-08T05:06:35;13.50;;;4.22;;
41861;SDS011;27537;57.134;-2.136;2024-03-08T05:09:03;14.48;;;5.15;;
41861;SDS011;27537;57.134;-2.136;2024-03-08T05:11:40;13.38;;;3.90;;
41861;SDS011;27537;57.134;-2.136;2024-03-08T05:14:08;19.00;;;8.20;;
41861;SDS011;27537;57.134;-2.136;2024-03-08T05:16:35;17.27;;;4.40;;
41861;SDS011;27537;57.134;-2.136;2024-03-08T05:19:02;12.77;;;4.68;;
41861;SDS011;27537;57.134;-2.136;2024-03-08T05:21:29;14.02;;;3.95;;
41861;SDS011;27537;57.134;-2.136;2024-03-08T05:23:56;15.20;;;5.22;;
41861;SDS011;27537;57.134;-2.136;2024-03-08T05:26:23;12.02;;;3.92;;
41861;SDS011;27537;57.134;-2.136;2024-03-08T05:28:50;13.32;;;3.53;;
41861;SDS011;27537;57.134;-2.136;2024-03-08T05:31:20;13.98;;;4.03;;
41861;SDS011;27537;57.134;-2.136;2024-03-08T05:33:49;9.73;;;3.47;;
41861;SDS011;27537;57.134;-2.136;2024-03-08T05:36:16;15.55;;;3.83;;
41861;SDS011;27537;57.134;-2.136;2024-03-08T05:38:43;13.73;;;4.03;;
41861;SDS011;27537;57.134;-2.136;2024-03-08T05:41:10;12.48;;;3.90;;
41861;SDS011;27537;57.134;-2.136;2024-03-08T05:43:41;11.65;;;3.70;;
41861;SDS011;27537;57.134;-2.136;2024-03-08T05:46:08;15.18;;;4.03;;
41861;SDS011;27537;57.134;-2.136;2024-03-08T05:48:34;13.55;;;3.67;;
41861;SDS011;27537;57.134;-2.136;2024-03-08T05:51:01;11.50;;;4.05;;
41861;SDS011;27537;57.134;-2.136;2024-03-08T05:53:28;12.77;;;3.35;;
41861;SDS011;27537;57.134;-2.136;2024-03-08T05:55:58;14.63;;;4.30;;
41861;SDS011;27537;57.134;-2.136;2024-03-08T05:58:25;12.98;;;4.25;;
41861;SDS011;27537;57.134;-2.136;2024-03-08T06:00:52;8.93;;;2.80;;
41861;SDS011;27537;57.134;-2.136;2024-03-08T06:03:19;11.20;;;3.42;;
41861;SDS011;27537;57.134;-2.136;2024-03-08T06:05:48;11.20;;;4.10;;
41861;SDS011;27537;57.134;-2.136;2024-03-08T06:08:15;11.80;;;3.95;;
41861;SDS011;27537;57.134;-2.136;2024-03-08T06:10:43;13.15;;;3.67;;
41861;SDS011;27537;57.134;-2.136;2024-03-08T06:13:10;15.02;;;3.80;;
41861;SDS011;27537;57.134;-2.136;2024-03-08T06:15:38;15.60;;;4.18;;
41861;SDS011;27537;57.134;-2.136;2024-03-08T06:18:05;10.27;;;3.20;;
41861;SDS011;27537;57.134;-2.136;2024-03-08T06:20:32;9.07;;;3.47;;
41861;SDS011;27537;57.134;-2.136;2024-03-08T06:22:59;12.95;;;3.70;;
41861;SDS011;27537;57.134;-2.136;2024-03-08T06:25:27;12.60;;;4.43;;
41861;SDS011;27537;57.134;-2.136;2024-03-08T06:27:54;12.40;;;4.75;;
41861;SDS011;27537;57.134;-2.136;2024-03-08T06:30:21;13.70;;;3.97;;
41861;SDS011;27537;57.134;-2.136;2024-03-08T06:32:48;16.70;;;4.68;;
41861;SDS011;27537;57.134;-2.136;2024-03-08T06:35:15;16.58;;;5.03;;
41861;SDS011;27537;57.134;-2.136;2024-03-08T06:37:42;14.30;;;4.18;;
41861;SDS011;27537;57.134;-2.136;2024-03-08T06:40:11;13.10;;;4.03;;
41861;SDS011;27537;57.134;-2.136;2024-03-08T06:42:40;14.90;;;4.45;;
41861;SDS011;27537;57.134;-2.136;2024-03-08T06:45:08;14.90;;;4.22;;
41861;SDS011;27537;57.134;-2.136;2024-03-08T06:47:36;19.55;;;4.43;;
41861;SDS011;27537;57.134;-2.136;2024-03-08T06:50:03;14.00;;;4.45;;
41861;SDS011;27537;57.134;-2.136;2024-03-08T06:52:31;15.00;;;4.85;;
41861;SDS011;27537;57.134;-2.136;2024-03-08T06:54:58;14.27;;;4.75;;
41861;SDS011;27537;57.134;-2.136;2024-03-08T06:57:28;14.55;;;3.72;;
41861;SDS011;27537;57.134;-2.136;2024-03-08T06:59:55;14.90;;;4.28;;
41861;SDS011;27537;57.134;-2.136;2024-03-08T07:02:23;14.00;;;3.97;;
41861;SDS011;27537;57.134;-2.136;2024-03-08T07:04:52;11.88;;;4.38;;
41861;SDS011;27537;57.134;-2.136;2024-03-08T07:07:19;10.43;;;3.55;;
41861;SDS011;27537;57.134;-2.136;2024-03-08T07:09:46;14.23;;;3.95;;
41861;SDS011;27537;57.134;-2.136;2024-03-08T07:12:13;15.35;;;4.28;;
41861;SDS011;27537;57.134;-2.136;2024-03-08T07:14:41;10.73;;;3.63;;
41861;SDS011;27537;57.134;-2.136;2024-03-08T07:17:07;13.95;;;5.25;;
41861;SDS011;27537;57.134;-2.136;2024-03-08T07:19:37;23.23;;;5.03;;
41861;SDS011;27537;57.134;-2.136;2024-03-08T07:22:05;11.15;;;3.60;;
41861;SDS011;27537;57.134;-2.136;2024-03-08T07:24:37;12.10;;;3.17;;
41861;SDS011;27537;57.134;-2.136;2024-03-08T07:27:16;10.55;;;3.70;;
41861;SDS011;27537;57.134;-2.136;2024-03-08T07:29:44;13.30;;;3.83;;
41861;SDS011;27537;57.134;-2.136;2024-03-08T07:32:11;13.25;;;4.32;;
41861;SDS011;27537;57.134;-2.136;2024-03-08T07:34:38;13.82;;;4.90;;
41861;SDS011;27537;57.134;-2.136;2024-03-08T07:37:06;13.77;;;4.85;;
41861;SDS011;27537;57.134;-2.136;2024-03-08T07:39:37;18.48;;;4.53;;
41861;SDS011;27537;57.134;-2.136;2024-03-08T07:42:05;12.68;;;4.28;;
41861;SDS011;27537;57.134;-2.136;2024-03-08T07:44:32;15.88;;;3.72;;
41861;SDS011;27537;57.134;-2.136;2024-03-08T07:46:59;18.33;;;4.28;;
41861;SDS011;27537;57.134;-2.136;2024-03-08T07:49:26;15.75;;;4.60;;
41861;SDS011;27537;57.134;-2.136;2024-03-08T07:51:53;12.52;;;4.78;;
41861;SDS011;27537;57.134;-2.136;2024-03-08T07:54:19;14.82;;;4.45;;
41861;SDS011;27537;57.134;-2.136;2024-03-08T07:56:46;15.50;;;3.92;;
41861;SDS011;27537;57.134;-2.136;2024-03-08T07:59:13;11.32;;;4.47;;
41861;SDS011;27537;57.134;-2.136;2024-03-08T08:01:40;16.58;;;4.90;;
41861;SDS011;27537;57.134;-2.136;2024-03-08T08:04:07;11.35;;;4.10;;
41861;SDS011;27537;57.134;-2.136;2024-03-08T08:06:38;12.07;;;4.07;;
41861;SDS011;27537;57.134;-2.136;2024-03-08T08:09:07;13.68;;;4.18;;
41861;SDS011;27537;57.134;-2.136;2024-03-08T08:11:54;14.75;;;5.53;;
41861;SDS011;27537;57.134;-2.136;2024-03-08T08:14:21;14.50;;;4.68;;
41861;SDS011;27537;57.134;-2.136;2024-03-08T08:16:48;14.23;;;4.50;;
41861;SDS011;27537;57.134;-2.136;2024-03-08T08:19:16;17.20;;;5.03;;
41861;SDS011;27537;57.134;-2.136;2024-03-08T08:21:43;11.68;;;5.20;;
41861;SDS011;27537;57.134;-2.136;2024-03-08T08:24:10;14.73;;;4.50;;
41861;SDS011;27537;57.134;-2.136;2024-03-08T08:26:37;11.73;;;4.28;;
41861;SDS011;27537;57.134;-2.136;2024-03-08T08:29:06;16.83;;;4.38;;
41861;SDS011;27537;57.134;-2.136;2024-03-08T08:31:33;13.40;;;4.53;;
41861;SDS011;27537;57.134;-2.136;2024-03-08T08:34:00;15.57;;;4.18;;
41861;SDS011;27537;57.134;-2.136;2024-03-08T08:36:27;13.23;;;3.92;;
41861;SDS011;27537;57.134;-2.136;2024-03-08T08:38:56;16.45;;;4.80;;
41861;SDS011;27537;57.134;-2.136;2024-03-08T08:41:24;13.43;;;5.20;;
41861;SDS011;27537;57.134;-2.136;2024-03-08T08:43:53;15.95;;;4.60;;
41861;SDS011;27537;57.134;-2.136;2024-03-08T08:46:33;13.13;;;4.57;;
41861;SDS011;27537;57.134;-2.136;2024-03-08T08:49:06;18.92;;;6.28;;
41861;SDS011;27537;57.134;-2.136;2024-03-08T08:51:38;14.98;;;4.95;;
41861;SDS011;27537;57.134;-2.136;2024-03-08T08:54:05;9.95;;;3.75;;
41861;SDS011;27537;57.134;-2.136;2024-03-08T08:56:36;13.30;;;5.55;;
41861;SDS011;27537;57.134;-2.136;2024-03-08T08:59:03;10.30;;;3.92;;
41861;SDS011;27537;57.134;-2.136;2024-03-08T09:01:31;15.02;;;4.97;;
41861;SDS011;27537;57.134;-2.136;2024-03-08T09:03:58;13.63;;;4.82;;
41861;SDS011;27537;57.134;-2.136;2024-03-08T09:06:24;20.23;;;5.93;;
41861;SDS011;27537;57.134;-2.136;2024-03-08T09:08:52;15.35;;;5.30;;
41861;SDS011;27537;57.134;-2.136;2024-03-08T09:11:19;17.77;;;5.70;;
41861;SDS011;27537;57.134;-2.136;2024-03-08T09:13:46;11.90;;;5.18;;
41861;SDS011;27537;57.134;-2.136;2024-03-08T09:16:13;14.55;;;5.53;;
41861;SDS011;27537;57.134;-2.136;2024-03-08T09:18:40;14.23;;;5.18;;
41861;SDS011;27537;57.134;-2.136;2024-03-08T09:21:08;16.85;;;5.15;;
41861;SDS011;27537;57.134;-2.136;2024-03-08T09:23:39;17.10;;;4.97;;
41861;SDS011;27537;57.134;-2.136;2024-03-08T09:26:07;14.98;;;4.60;;
41861;SDS011;27537;57.134;-2.136;2024-03-08T09:28:48;18.90;;;5.47;;
41861;SDS011;27537;57.134;-2.136;2024-03-08T09:31:14;15.73;;;5.55;;
41861;SDS011;27537;57.134;-2.136;2024-03-08T09:33:44;20.25;;;5.95;;
41861;SDS011;27537;57.134;-2.136;2024-03-08T09:36:11;14.52;;;5.70;;
41861;SDS011;27537;57.134;-2.136;2024-03-08T09:38:39;15.43;;;5.18;;
41861;SDS011;27537;57.134;-2.136;2024-03-08T09:41:08;17.17;;;6.93;;
41861;SDS011;27537;57.134;-2.136;2024-03-08T09:43:36;20.90;;;6.53;;
41861;SDS011;27537;57.134;-2.136;2024-03-08T09:46:04;18.30;;;7.10;;
41861;SDS011;27537;57.134;-2.136;2024-03-08T09:48:34;20.10;;;8.00;;
41861;SDS011;27537;57.134;-2.136;2024-03-08T09:51:02;18.30;;;8.27;;
41861;SDS011;27537;57.134;-2.136;2024-03-08T09:53:30;15.05;;;7.25;;
41861;SDS011;27537;57.134;-2.136;2024-03-08T09:55:57;15.45;;;6.80;;
41861;SDS011;27537;57.134;-2.136;2024-03-08T09:58:25;20.98;;;7.22;;
41861;SDS011;27537;57.134;-2.136;2024-03-08T10:01:05;18.90;;;7.93;;
41861;SDS011;27537;57.134;-2.136;2024-03-08T10:03:32;24.65;;;8.32;;
41861;SDS011;27537;57.134;-2.136;2024-03-08T10:05:59;19.17;;;7.60;;
41861;SDS011;27537;57.134;-2.136;2024-03-08T10:08:29;20.25;;;7.90;;
41861;SDS011;27537;57.134;-2.136;2024-03-08T10:10:56;20.73;;;7.97;;
41861;SDS011;27537;57.134;-2.136;2024-03-08T10:13:25;20.13;;;8.27;;
41861;SDS011;27537;57.134;-2.136;2024-03-08T10:15:56;18.33;;;7.13;;
41861;SDS011;27537;57.134;-2.136;2024-03-08T10:18:23;20.92;;;8.55;;
41861;SDS011;27537;57.134;-2.136;2024-03-08T10:21:06;22.05;;;7.90;;
41861;SDS011;27537;57.134;-2.136;2024-03-08T10:23:35;26.33;;;8.02;;
41861;SDS011;27537;57.134;-2.136;2024-03-08T10:26:09;19.50;;;8.95;;
41861;SDS011;27537;57.134;-2.136;2024-03-08T10:31:03;18.65;;;7.07;;
41861;SDS011;27537;57.134;-2.136;2024-03-08T10:33:30;28.38;;;8.75;;
41861;SDS011;27537;57.134;-2.136;2024-03-08T10:35:57;21.77;;;8.82;;
41861;SDS011;27537;57.134;-2.136;2024-03-08T10:38:24;21.23;;;9.00;;
41861;SDS011;27537;57.134;-2.136;2024-03-08T10:40:52;24.75;;;9.20;;
41861;SDS011;27537;57.134;-2.136;2024-03-08T10:43:25;25.00;;;10.15;;
41861;SDS011;27537;57.134;-2.136;2024-03-08T10:45:56;21.42;;;9.60;;
41861;SDS011;27537;57.134;-2.136;2024-03-08T10:48:40;21.27;;;8.88;;
41861;SDS011;27537;57.134;-2.136;2024-03-08T10:51:11;24.45;;;10.18;;
41861;SDS011;27537;57.134;-2.136;2024-03-08T10:53:38;21.90;;;10.73;;
41861;SDS011;27537;57.134;-2.136;2024-03-08T10:56:08;27.33;;;10.60;;
41861;SDS011;27537;57.134;-2.136;2024-03-08T10:58:36;33.15;;;10.77;;
41861;SDS011;27537;57.134;-2.136;2024-03-08T11:01:04;26.90;;;11.73;;
41861;SDS011;27537;57.134;-2.136;2024-03-08T11:08:41;25.63;;;11.07;;
41861;SDS011;27537;57.134;-2.136;2024-03-08T11:14:01;29.13;;;12.43;;
41861;SDS011;27537;57.134;-2.136;2024-03-08T11:18:59;33.17;;;13.93;;
41861;SDS011;27537;57.134;-2.136;2024-03-08T11:21:31;28.63;;;13.23;;
41861;SDS011;27537;57.134;-2.136;2024-03-08T11:24:10;28.70;;;13.80;;
41861;SDS011;27537;57.134;-2.136;2024-03-08T11:26:40;29.73;;;13.45;;
41861;SDS011;27537;57.134;-2.136;2024-03-08T11:32:12;28.20;;;13.25;;
41861;SDS011;27537;57.134;-2.136;2024-03-08T11:34:40;33.85;;;15.40;;
41861;SDS011;27537;57.134;-2.136;2024-03-08T11:37:15;32.33;;;13.48;;
41861;SDS011;27537;57.134;-2.136;2024-03-08T11:42:15;33.10;;;14.80;;
41861;SDS011;27537;57.134;-2.136;2024-03-08T11:44:46;32.65;;;14.00;;
41861;SDS011;27537;57.134;-2.136;2024-03-08T11:47:14;30.42;;;13.38;;
41861;SDS011;27537;57.134;-2.136;2024-03-08T11:49:43;31.60;;;15.65;;
41861;SDS011;27537;57.134;-2.136;2024-03-08T11:52:11;33.53;;;15.27;;
41861;SDS011;27537;57.134;-2.136;2024-03-08T11:54:41;30.95;;;13.93;;
41861;SDS011;27537;57.134;-2.136;2024-03-08T11:57:09;38.33;;;14.80;;
41861;SDS011;27537;57.134;-2.136;2024-03-08T11:59:37;27.85;;;13.68;;
41861;SDS011;27537;57.134;-2.136;2024-03-08T12:02:04;29.45;;;11.88;;
41861;SDS011;27537;57.134;-2.136;2024-03-08T12:04:32;29.40;;;12.43;;
41861;SDS011;27537;57.134;-2.136;2024-03-08T12:06:59;26.90;;;12.52;;
41861;SDS011;27537;57.134;-2.136;2024-03-08T12:09:35;28.38;;;10.80;;
41861;SDS011;27537;57.134;-2.136;2024-03-08T12:12:02;24.17;;;11.80;;
41861;SDS011;27537;57.134;-2.136;2024-03-08T12:14:33;30.85;;;14.88;;
41861;SDS011;27537;57.134;-2.136;2024-03-08T12:17:00;41.35;;;16.35;;
41861;SDS011;27537;57.134;-2.136;2024-03-08T12:19:28;37.13;;;15.35;;
41861;SDS011;27537;57.134;-2.136;2024-03-08T12:21:55;38.00;;;15.90;;
41861;SDS011;27537;57.134;-2.136;2024-03-08T12:24:21;36.25;;;15.98;;
41861;SDS011;27537;57.134;-2.136;2024-03-08T12:26:49;43.33;;;16.48;;
41861;SDS011;27537;57.134;-2.136;2024-03-08T12:29:25;32.53;;;14.85;;
41861;SDS011;27537;57.134;-2.136;2024-03-08T12:31:55;30.95;;;15.10;;
41861;SDS011;27537;57.134;-2.136;2024-03-08T12:34:25;31.10;;;14.00;;
41861;SDS011;27537;57.134;-2.136;2024-03-08T12:36:54;36.53;;;15.85;;
41861;SDS011;27537;57.134;-2.136;2024-03-08T12:39:22;29.63;;;15.23;;
41861;SDS011;27537;57.134;-2.136;2024-03-08T12:41:53;33.63;;;15.93;;
41861;SDS011;27537;57.134;-2.136;2024-03-08T12:44:20;30.55;;;14.43;;
41861;SDS011;27537;57.134;-2.136;2024-03-08T12:46:51;32.70;;;14.05;;
41861;SDS011;27537;57.134;-2.136;2024-03-08T12:49:20;27.48;;;13.52;;
41861;SDS011;27537;57.134;-2.136;2024-03-08T12:51:50;31.23;;;15.30;;
41861;SDS011;27537;57.134;-2.136;2024-03-08T12:54:19;33.97;;;15.02;;
41861;SDS011;27537;57.134;-2.136;2024-03-08T12:56:50;36.63;;;16.88;;
41861;SDS011;27537;57.134;-2.136;2024-03-08T12:59:20;29.63;;;14.85;;
41861;SDS011;27537;57.134;-2.136;2024-03-08T13:01:49;42.35;;;18.23;;
41861;SDS011;27537;57.134;-2.136;2024-03-08T13:04:18;31.85;;;15.00;;
41861;SDS011;27537;57.134;-2.136;2024-03-08T13:06:45;27.65;;;13.68;;
41861;SDS011;27537;57.134;-2.136;2024-03-08T13:09:19;33.05;;;15.75;;
41861;SDS011;27537;57.134;-2.136;2024-03-08T13:11:46;32.78;;;15.48;;
41861;SDS011;27537;57.134;-2.136;2024-03-08T13:14:13;33.17;;;16.58;;
41861;SDS011;27537;57.134;-2.136;2024-03-08T13:16:41;32.47;;;14.73;;
41861;SDS011;27537;57.134;-2.136;2024-03-08T13:19:08;37.55;;;17.17;;
41861;SDS011;27537;57.134;-2.136;2024-03-08T13:21:35;31.50;;;14.13;;
41861;SDS011;27537;57.134;-2.136;2024-03-08T13:24:02;30.40;;;14.50;;
41861;SDS011;27537;57.134;-2.136;2024-03-08T13:26:29;35.08;;;15.93;;
41861;SDS011;27537;57.134;-2.136;2024-03-08T13:28:59;31.83;;;14.88;;
41861;SDS011;27537;57.134;-2.136;2024-03-08T13:31:26;27.30;;;14.30;;
41861;SDS011;27537;57.134;-2.136;2024-03-08T13:33:53;31.38;;;13.77;;
41861;SDS011;27537;57.134;-2.136;2024-03-08T13:36:25;29.67;;;14.68;;
41861;SDS011;27537;57.134;-2.136;2024-03-08T13:38:55;28.95;;;15.63;;
41861;SDS011;27537;57.134;-2.136;2024-03-08T13:41:25;29.23;;;14.05;;
41861;SDS011;27537;57.134;-2.136;2024-03-08T13:43:54;30.70;;;15.10;;
41861;SDS011;27537;57.134;-2.136;2024-03-08T13:46:22;39.08;;;16.02;;
41861;SDS011;27537;57.134;-2.136;2024-03-08T13:48:50;26.65;;;13.88;;
41861;SDS011;27537;57.134;-2.136;2024-03-08T13:51:20;35.33;;;14.32;;
41861;SDS011;27537;57.134;-2.136;2024-03-08T13:53:48;28.77;;;13.43;;
41861;SDS011;27537;57.134;-2.136;2024-03-08T13:56:15;32.38;;;13.55;;
41861;SDS011;27537;57.134;-2.136;2024-03-08T13:58:42;31.63;;;13.63;;
41861;SDS011;27537;57.134;-2.136;2024-03-08T14:01:10;26.65;;;13.40;;
41861;SDS011;27537;57.134;-2.136;2024-03-08T14:03:38;31.92;;;14.70;;
41861;SDS011;27537;57.134;-2.136;2024-03-08T14:06:08;32.38;;;14.77;;
41861;SDS011;27537;57.134;-2.136;2024-03-08T14:08:48;33.58;;;14.75;;
41861;SDS011;27537;57.134;-2.136;2024-03-08T14:11:15;28.20;;;14.98;;
41861;SDS011;27537;57.134;-2.136;2024-03-08T14:13:45;33.28;;;12.85;;
41861;SDS011;27537;57.134;-2.136;2024-03-08T14:16:12;29.48;;;14.18;;
41861;SDS011;27537;57.134;-2.136;2024-03-08T14:18:39;27.73;;;15.15;;
41861;SDS011;27537;57.134;-2.136;2024-03-08T14:21:06;28.73;;;12.75;;
41861;SDS011;27537;57.134;-2.136;2024-03-08T14:23:37;26.20;;;14.52;;
41861;SDS011;27537;57.134;-2.136;2024-03-08T14:26:04;32.22;;;14.43;;
41861;SDS011;27537;57.134;-2.136;2024-03-08T14:28:33;29.20;;;13.48;;
41861;SDS011;27537;57.134;-2.136;2024-03-08T14:31:00;40.58;;;16.15;;
41861;SDS011;27537;57.134;-2.136;2024-03-08T14:33:32;28.33;;;14.17;;
41861;SDS011;27537;57.134;-2.136;2024-03-08T14:35:59;30.23;;;13.18;;
41861;SDS011;27537;57.134;-2.136;2024-03-08T14:38:27;25.92;;;12.25;;
41861;SDS011;27537;57.134;-2.136;2024-03-08T14:40:54;29.08;;;12.70;;
41861;SDS011;27537;57.134;-2.136;2024-03-08T14:43:22;36.58;;;15.20;;
41861;SDS011;27537;57.134;-2.136;2024-03-08T14:45:49;29.10;;;13.57;;